sensor_id;sensor_type;location;lat;lon;timestamp;pressure;altitude;pressure_sealevel;temperature;humidity
62703;BME280;66022;50.448;18.122;2023-03-21T00:01:00;99234.47;;;10.12;94.43
62703;BME280;66022;50.448;18.122;2023-03-21T00:05:04;99231.52;;;10.08;94.50
62703;BME280;66022;50.448;18.122;2023-03-21T00:09:08;99228.86;;;10.03;96.19
62703;BME280;66022;50.448;18.122;2023-03-21T00:13:13;99225.50;;;9.98;94.89
62703;BME280;66022;50.448;18.122;2023-03-21T00:17:16;99222.16;;;9.92;99.98
62703;BME280;66022;50.448;18.122;2023-03-21T00:21:21;99218.39;;;9.88;95.82
62703;BME280;66022;50.448;18.122;2023-03-21T00:25:24;99213.76;;;9.85;95.15
62703;BME280;66022;50.448;18.122;2023-03-21T00:29:28;99208.53;;;9.82;96.10
62703;BME280;66022;50.448;18.122;2023-03-21T00:33:32;99203.27;;;9.82;95.28
62703;BME280;66022;50.448;18.122;2023-03-21T00:37:36;99199.27;;;9.80;98.53
62703;BME280;66022;50.448;18.122;2023-03-21T00:41:40;99194.90;;;9.80;94.90
62703;BME280;66022;50.448;18.122;2023-03-21T00:45:44;99189.95;;;9.79;94.66
62703;BME280;66022;50.448;18.122;2023-03-21T00:49:48;99186.88;;;9.79;95.89
62703;BME280;66022;50.448;18.122;2023-03-21T00:53:53;99184.41;;;9.77;95.72
62703;BME280;66022;50.448;18.122;2023-03-21T00:57:56;99181.73;;;9.72;98.14
62703;BME280;66022;50.448;18.122;2023-03-21T01:02:00;99178.81;;;9.70;95.45
62703;BME280;66022;50.448;18.122;2023-03-21T01:06:04;99179.41;;;9.67;99.68
62703;BME280;66022;50.448;18.122;2023-03-21T01:10:09;99177.87;;;9.66;95.34
62703;BME280;66022;50.448;18.122;2023-03-21T01:14:13;99176.65;;;9.66;94.67
62703;BME280;66022;50.448;18.122;2023-03-21T01:18:17;99174.27;;;9.63;96.82
62703;BME280;66022;50.448;18.122;2023-03-21T01:22:21;99172.55;;;9.64;95.14
62703;BME280;66022;50.448;18.122;2023-03-21T01:26:24;99170.34;;;9.62;100.00
62703;BME280;66022;50.448;18.122;2023-03-21T01:30:28;99168.21;;;9.64;95.17
62703;BME280;66022;50.448;18.122;2023-03-21T01:34:32;99167.27;;;9.65;94.39
62703;BME280;66022;50.448;18.122;2023-03-21T01:38:36;99168.21;;;9.64;96.22
62703;BME280;66022;50.448;18.122;2023-03-21T01:42:40;99168.09;;;9.66;94.49
62703;BME280;66022;50.448;18.122;2023-03-21T01:46:48;99167.75;;;9.66;100.00
62703;BME280;66022;50.448;18.122;2023-03-21T01:50:49;99167.39;;;9.67;95.26
62703;BME280;66022;50.448;18.122;2023-03-21T01:54:52;99167.55;;;9.68;95.00
62703;BME280;66022;50.448;18.122;2023-03-21T01:58:58;99167.86;;;9.68;96.45
62703;BME280;66022;50.448;18.122;2023-03-21T02:03:01;99168.27;;;9.69;95.00
62703;BME280;66022;50.448;18.122;2023-03-21T02:11:08;99169.29;;;9.69;95.45
62703;BME280;66022;50.448;18.122;2023-03-21T02:15:12;99170.28;;;9.68;95.36
62703;BME280;66022;50.448;18.122;2023-03-21T02:23:27;99168.42;;;9.67;94.82
62703;BME280;66022;50.448;18.122;2023-03-21T02:27:24;99167.42;;;9.66;98.43
62703;BME280;66022;50.448;18.122;2023-03-21T02:35:35;99163.78;;;9.66;93.59
62703;BME280;66022;50.448;18.122;2023-03-21T02:39:40;99160.71;;;9.67;94.09
62703;BME280;66022;50.448;18.122;2023-03-21T02:43:44;99157.67;;;9.67;93.00
62703;BME280;66022;50.448;18.122;2023-03-21T02:47:48;99156.01;;;9.67;96.04
62703;BME280;66022;50.448;18.122;2023-03-21T02:51:48;99154.91;;;9.67;93.93
62703;BME280;66022;50.448;18.122;2023-03-21T02:55:52;99154.33;;;9.66;93.33
62703;BME280;66022;50.448;18.122;2023-03-21T02:59:56;99151.87;;;9.63;94.69
62703;BME280;66022;50.448;18.122;2023-03-21T03:04:00;99149.94;;;9.58;93.70
62703;BME280;66022;50.448;18.122;2023-03-21T03:12:16;99146.87;;;9.43;95.08
62703;BME280;66022;50.448;18.122;2023-03-21T03:16:19;99145.84;;;9.32;100.00
62703;BME280;66022;50.448;18.122;2023-03-21T03:24:22;99145.67;;;9.19;95.17
62703;BME280;66022;50.448;18.122;2023-03-21T03:28:25;99146.03;;;9.13;96.99
62703;BME280;66022;50.448;18.122;2023-03-21T03:32:36;99146.63;;;9.12;95.93
62703;BME280;66022;50.448;18.122;2023-03-21T03:40:40;99147.77;;;9.10;95.21
62703;BME280;66022;50.448;18.122;2023-03-21T03:44:41;99148.77;;;9.15;94.15
62703;BME280;66022;50.448;18.122;2023-03-21T03:48:48;99149.44;;;9.20;95.08
62703;BME280;66022;50.448;18.122;2023-03-21T03:52:49;99149.14;;;9.26;93.58
62703;BME280;66022;50.448;18.122;2023-03-21T03:56:53;99149.67;;;9.30;99.82
62703;BME280;66022;50.448;18.122;2023-03-21T04:00:57;99149.10;;;9.33;94.02
62703;BME280;66022;50.448;18.122;2023-03-21T04:05:01;99147.24;;;9.33;94.16
62703;BME280;66022;50.448;18.122;2023-03-21T04:09:05;99145.31;;;9.29;94.83
62703;BME280;66022;50.448;18.122;2023-03-21T04:13:09;99144.26;;;9.27;94.16
62703;BME280;66022;50.448;18.122;2023-03-21T04:17:13;99143.63;;;9.25;97.12
62703;BME280;66022;50.448;18.122;2023-03-21T04:21:17;99144.34;;;9.24;94.77
62703;BME280;66022;50.448;18.122;2023-03-21T04:25:21;99146.22;;;9.22;94.33
62703;BME280;66022;50.448;18.122;2023-03-21T04:29:25;99145.83;;;9.20;95.10
62703;BME280;66022;50.448;18.122;2023-03-21T04:33:29;99144.33;;;9.19;94.59
62703;BME280;66022;50.448;18.122;2023-03-21T04:37:33;99144.97;;;9.15;98.08
62703;BME280;66022;50.448;18.122;2023-03-21T04:41:37;99146.87;;;9.13;95.67
62703;BME280;66022;50.448;18.122;2023-03-21T04:45:41;99148.10;;;9.10;95.25
62703;BME280;66022;50.448;18.122;2023-03-21T04:49:45;99148.58;;;9.07;96.31
62703;BME280;66022;50.448;18.122;2023-03-21T04:53:49;99149.67;;;9.06;95.14
62703;BME280;66022;50.448;18.122;2023-03-21T04:57:53;99151.71;;;9.04;97.86
62703;BME280;66022;50.448;18.122;2023-03-21T05:01:57;99154.30;;;9.04;95.22
62703;BME280;66022;50.448;18.122;2023-03-21T05:06:01;99155.86;;;9.02;98.78
62703;BME280;66022;50.448;18.122;2023-03-21T05:10:05;99157.56;;;9.01;95.98
62703;BME280;66022;50.448;18.122;2023-03-21T05:14:10;99159.49;;;9.01;95.46
62703;BME280;66022;50.448;18.122;2023-03-21T05:18:13;99159.94;;;8.98;96.90
62703;BME280;66022;50.448;18.122;2023-03-21T05:22:17;99160.46;;;8.98;95.45
62703;BME280;66022;50.448;18.122;2023-03-21T05:26:21;99160.60;;;8.95;100.00
62703;BME280;66022;50.448;18.122;2023-03-21T05:30:25;99160.75;;;8.96;95.60
62703;BME280;66022;50.448;18.122;2023-03-21T05:34:29;99162.07;;;8.97;95.34
62703;BME280;66022;50.448;18.122;2023-03-21T05:38:33;99164.04;;;8.94;97.03
62703;BME280;66022;50.448;18.122;2023-03-21T05:42:37;99165.12;;;8.95;95.57
62703;BME280;66022;50.448;18.122;2023-03-21T05:46:41;99166.72;;;8.94;100.00
62703;BME280;66022;50.448;18.122;2023-03-21T05:50:45;99168.22;;;8.96;95.74
62703;BME280;66022;50.448;18.122;2023-03-21T05:54:49;99170.43;;;8.97;95.31
62703;BME280;66022;50.448;18.122;2023-03-21T05:58:54;99172.44;;;8.98;96.59
62703;BME280;66022;50.448;18.122;2023-03-21T06:02:57;99174.39;;;9.01;95.62
62703;BME280;66022;50.448;18.122;2023-03-21T06:07:01;99176.09;;;9.01;100.00
62703;BME280;66022;50.448;18.122;2023-03-21T06:11:05;99177.80;;;9.03;95.76
62703;BME280;66022;50.448;18.122;2023-03-21T06:15:09;99181.04;;;9.05;95.35
62703;BME280;66022;50.448;18.122;2023-03-21T06:19:13;99184.28;;;9.06;96.81
62703;BME280;66022;50.448;18.122;2023-03-21T06:23:17;99187.42;;;9.08;95.45
62703;BME280;66022;50.448;18.122;2023-03-21T06:27:21;99189.92;;;9.10;99.46
62703;BME280;66022;50.448;18.122;2023-03-21T06:31:25;99191.07;;;9.12;96.12
62703;BME280;66022;50.448;18.122;2023-03-21T06:35:29;99192.38;;;9.14;95.58
62703;BME280;66022;50.448;18.122;2023-03-21T06:39:34;99193.44;;;9.16;96.71
62703;BME280;66022;50.448;18.122;2023-03-21T06:43:37;99194.89;;;9.19;95.79
62703;BME280;66022;50.448;18.122;2023-03-21T06:47:41;99196.61;;;9.20;99.33
62703;BME280;66022;50.448;18.122;2023-03-21T06:51:45;99198.58;;;9.23;96.19
62703;BME280;66022;50.448;18.122;2023-03-21T06:55:52;99200.87;;;9.26;95.35
62703;BME280;66022;50.448;18.122;2023-03-21T06:59:53;99202.99;;;9.30;96.31
62703;BME280;66022;50.448;18.122;2023-03-21T07:03:57;99205.78;;;9.33;95.58
62703;BME280;66022;50.448;18.122;2023-03-21T07:08:01;99208.67;;;9.36;97.75
62703;BME280;66022;50.448;18.122;2023-03-21T07:12:05;99212.08;;;9.41;95.98
62703;BME280;66022;50.448;18.122;2023-03-21T07:20:13;99219.14;;;9.53;95.59
62703;BME280;66022;50.448;18.122;2023-03-21T07:24:17;99222.31;;;9.60;94.91
62703;BME280;66022;50.448;18.122;2023-03-21T07:28:21;99224.92;;;9.64;97.13
62703;BME280;66022;50.448;18.122;2023-03-21T07:32:25;99227.89;;;9.70;94.51
62703;BME280;66022;50.448;18.122;2023-03-21T07:36:29;99230.47;;;9.72;100.00
62703;BME280;66022;50.448;18.122;2023-03-21T07:40:33;99232.11;;;9.77;94.39
62703;BME280;66022;50.448;18.122;2023-03-21T07:44:37;99234.55;;;9.81;94.27
62703;BME280;66022;50.448;18.122;2023-03-21T07:48:41;99237.11;;;9.83;96.09
62703;BME280;66022;50.448;18.122;2023-03-21T07:52:45;99240.08;;;9.87;94.47
62703;BME280;66022;50.448;18.122;2023-03-21T07:56:49;99242.63;;;9.90;100.00
62703;BME280;66022;50.448;18.122;2023-03-21T08:00:53;99244.97;;;9.94;94.49
62703;BME280;66022;50.448;18.122;2023-03-21T08:04:57;99246.15;;;9.98;93.70
62703;BME280;66022;50.448;18.122;2023-03-21T08:09:06;99247.24;;;10.02;94.27
62703;BME280;66022;50.448;18.122;2023-03-21T08:13:09;99249.03;;;10.09;92.59
62703;BME280;66022;50.448;18.122;2023-03-21T08:17:09;99251.32;;;10.16;95.12
62703;BME280;66022;50.448;18.122;2023-03-21T08:21:13;99252.20;;;10.27;91.00
62703;BME280;66022;50.448;18.122;2023-03-21T08:25:18;99254.28;;;10.37;91.27
62703;BME280;66022;50.448;18.122;2023-03-21T08:29:21;99256.20;;;10.45;91.44
62703;BME280;66022;50.448;18.122;2023-03-21T08:33:25;99257.78;;;10.53;90.07
62703;BME280;66022;50.448;18.122;2023-03-21T08:37:29;99258.67;;;10.58;90.04
62703;BME280;66022;50.448;18.122;2023-03-21T08:41:34;99259.01;;;10.66;88.05
62703;BME280;66022;50.448;18.122;2023-03-21T08:45:37;99259.27;;;10.73;87.77
62703;BME280;66022;50.448;18.122;2023-03-21T08:49:41;99260.52;;;10.82;87.83
62703;BME280;66022;50.448;18.122;2023-03-21T08:53:45;99262.42;;;10.91;87.43
62703;BME280;66022;50.448;18.122;2023-03-21T08:57:49;99264.26;;;10.97;87.67
62703;BME280;66022;50.448;18.122;2023-03-21T09:01:53;99265.53;;;11.04;86.43
62703;BME280;66022;50.448;18.122;2023-03-21T09:05:57;99266.61;;;11.08;87.29
62703;BME280;66022;50.448;18.122;2023-03-21T09:10:01;99269.17;;;11.13;86.61
62703;BME280;66022;50.448;18.122;2023-03-21T09:14:05;99272.78;;;11.17;86.34
62703;BME280;66022;50.448;18.122;2023-03-21T09:18:09;99275.52;;;11.18;85.85
62703;BME280;66022;50.448;18.122;2023-03-21T09:22:13;99278.44;;;11.23;85.14
62703;BME280;66022;50.448;18.122;2023-03-21T09:26:20;99280.30;;;11.23;86.50
62703;BME280;66022;50.448;18.122;2023-03-21T09:30:21;99282.67;;;11.26;88.05
62703;BME280;66022;50.448;18.122;2023-03-21T09:34:25;99284.70;;;11.31;86.61
62703;BME280;66022;50.448;18.122;2023-03-21T09:38:29;99287.39;;;11.38;84.83
62703;BME280;66022;50.448;18.122;2023-03-21T09:50:41;99294.67;;;11.67;83.57
62703;BME280;66022;50.448;18.122;2023-03-21T09:54:45;99296.30;;;11.75;83.32
62703;BME280;66022;50.448;18.122;2023-03-21T09:58:50;99298.91;;;11.79;82.52
62703;BME280;66022;50.448;18.122;2023-03-21T10:02:53;99299.78;;;11.83;82.48
62703;BME280;66022;50.448;18.122;2023-03-21T10:06:58;99300.93;;;11.85;84.55
62703;BME280;66022;50.448;18.122;2023-03-21T10:11:02;99302.40;;;11.86;83.23
62703;BME280;66022;50.448;18.122;2023-03-21T10:15:05;99303.55;;;11.84;83.37
62703;BME280;66022;50.448;18.122;2023-03-21T10:19:11;99303.94;;;11.79;83.07
62703;BME280;66022;50.448;18.122;2023-03-21T10:23:14;99304.18;;;11.76;82.88
62703;BME280;66022;50.448;18.122;2023-03-21T10:27:17;99305.58;;;11.71;85.21
62703;BME280;66022;50.448;18.122;2023-03-21T10:31:21;99306.78;;;11.67;83.31
62703;BME280;66022;50.448;18.122;2023-03-21T10:35:25;99308.73;;;11.63;83.80
62703;BME280;66022;50.448;18.122;2023-03-21T10:43:34;99311.21;;;11.59;85.31
62703;BME280;66022;50.448;18.122;2023-03-21T10:47:37;99312.41;;;11.58;86.58
62703;BME280;66022;50.448;18.122;2023-03-21T10:51:42;99313.37;;;11.59;84.42
62703;BME280;66022;50.448;18.122;2023-03-21T11:03:57;99313.83;;;11.65;83.79
62703;BME280;66022;50.448;18.122;2023-03-21T11:07:58;99313.44;;;11.67;85.25
62703;BME280;66022;50.448;18.122;2023-03-21T11:12:02;99312.52;;;11.70;82.22
62703;BME280;66022;50.448;18.122;2023-03-21T11:16:09;99312.11;;;11.70;86.81
62703;BME280;66022;50.448;18.122;2023-03-21T11:20:10;99311.13;;;11.72;82.94
62703;BME280;66022;50.448;18.122;2023-03-21T11:24:14;99309.56;;;11.73;82.52
62703;BME280;66022;50.448;18.122;2023-03-21T11:28:19;99308.53;;;11.71;83.16
62703;BME280;66022;50.448;18.122;2023-03-21T11:36:26;99306.90;;;11.70;85.98
62703;BME280;66022;50.448;18.122;2023-03-21T11:40:33;99304.82;;;11.72;83.06
62703;BME280;66022;50.448;18.122;2023-03-21T11:44:34;99302.22;;;11.74;83.80
62703;BME280;66022;50.448;18.122;2023-03-21T11:48:44;99299.42;;;11.74;83.88
62703;BME280;66022;50.448;18.122;2023-03-21T11:52:42;99296.80;;;11.79;83.36
62703;BME280;66022;50.448;18.122;2023-03-21T12:04:54;99287.75;;;11.94;82.69
62703;BME280;66022;50.448;18.122;2023-03-21T12:09:02;99283.74;;;11.99;82.74
62703;BME280;66022;50.448;18.122;2023-03-21T12:13:08;99279.22;;;12.07;80.92
62703;BME280;66022;50.448;18.122;2023-03-21T12:21:19;99271.74;;;12.21;82.86
62703;BME280;66022;50.448;18.122;2023-03-21T12:25:18;99266.06;;;12.31;82.23
62703;BME280;66022;50.448;18.122;2023-03-21T12:29:21;99261.44;;;12.40;79.34
62703;BME280;66022;50.448;18.122;2023-03-21T12:33:27;99256.64;;;12.48;78.66
62703;BME280;66022;50.448;18.122;2023-03-21T12:45:41;99244.89;;;12.68;77.73
62703;BME280;66022;50.448;18.122;2023-03-21T12:49:47;99242.05;;;12.72;77.06
62703;BME280;66022;50.448;18.122;2023-03-21T12:53:50;99239.69;;;12.78;76.66
62703;BME280;66022;50.448;18.122;2023-03-21T12:58:34;99236.57;;;12.83;77.23
62703;BME280;66022;50.448;18.122;2023-03-21T13:01:55;99233.51;;;12.92;75.17
62703;BME280;66022;50.448;18.122;2023-03-21T13:06:00;99229.76;;;12.99;75.22
62703;BME280;66022;50.448;18.122;2023-03-21T13:10:03;99225.36;;;13.02;75.70
62703;BME280;66022;50.448;18.122;2023-03-21T13:18:15;99219.23;;;12.99;76.21
62703;BME280;66022;50.448;18.122;2023-03-21T13:26:18;99216.09;;;12.86;78.37
62703;BME280;66022;50.448;18.122;2023-03-21T13:30:22;99213.64;;;12.81;78.66
62703;BME280;66022;50.448;18.122;2023-03-21T13:34:26;99211.38;;;12.78;77.51
62703;BME280;66022;50.448;18.122;2023-03-21T13:38:30;99209.05;;;12.66;77.73
62703;BME280;66022;50.448;18.122;2023-03-21T13:42:34;99207.23;;;12.62;77.76
62703;BME280;66022;50.448;18.122;2023-03-21T13:46:51;99205.16;;;12.55;80.03
62703;BME280;66022;50.448;18.122;2023-03-21T13:58:51;99200.86;;;12.48;78.01
62703;BME280;66022;50.448;18.122;2023-03-21T14:07:00;99197.96;;;12.44;79.77
62703;BME280;66022;50.448;18.122;2023-03-21T14:11:06;99195.65;;;12.42;78.89
62703;BME280;66022;50.448;18.122;2023-03-21T14:15:11;99193.72;;;12.39;78.77
62703;BME280;66022;50.448;18.122;2023-03-21T14:19:10;99192.35;;;12.34;79.43
62703;BME280;66022;50.448;18.122;2023-03-21T14:23:15;99190.97;;;12.30;78.95
62703;BME280;66022;50.448;18.122;2023-03-21T14:27:18;99190.06;;;12.24;80.36
62703;BME280;66022;50.448;18.122;2023-03-21T14:31:22;99187.12;;;12.20;79.16
62703;BME280;66022;50.448;18.122;2023-03-21T14:35:29;99184.61;;;12.17;78.75
62703;BME280;66022;50.448;18.122;2023-03-21T14:39:31;99182.76;;;12.14;79.91
62703;BME280;66022;50.448;18.122;2023-03-21T14:43:34;99179.53;;;12.12;79.40
62703;BME280;66022;50.448;18.122;2023-03-21T14:47:38;99175.74;;;12.09;79.55
62703;BME280;66022;50.448;18.122;2023-03-21T14:51:42;99172.55;;;12.09;78.76
62703;BME280;66022;50.448;18.122;2023-03-21T14:55:49;99170.00;;;12.10;78.95
62703;BME280;66022;50.448;18.122;2023-03-21T14:59:51;99167.65;;;12.13;80.13
62703;BME280;66022;50.448;18.122;2023-03-21T15:03:54;99165.29;;;12.18;78.50
62703;BME280;66022;50.448;18.122;2023-03-21T15:08:05;99162.39;;;12.22;79.53
62703;BME280;66022;50.448;18.122;2023-03-21T15:12:06;99160.25;;;12.29;78.34
62703;BME280;66022;50.448;18.122;2023-03-21T15:16:06;99157.70;;;12.32;77.62
62703;BME280;66022;50.448;18.122;2023-03-21T15:20:14;99155.53;;;12.37;77.48
62703;BME280;66022;50.448;18.122;2023-03-21T15:24:16;99153.88;;;12.39;77.10
62703;BME280;66022;50.448;18.122;2023-03-21T15:28:18;99151.64;;;12.38;78.15
62703;BME280;66022;50.448;18.122;2023-03-21T15:32:23;99148.53;;;12.37;78.83
62703;BME280;66022;50.448;18.122;2023-03-21T15:36:28;99145.50;;;12.32;82.34
62703;BME280;66022;50.448;18.122;2023-03-21T15:40:33;99143.02;;;12.30;78.42
62703;BME280;66022;50.448;18.122;2023-03-21T15:44:34;99140.39;;;12.28;80.45
62703;BME280;66022;50.448;18.122;2023-03-21T15:48:38;99139.49;;;12.27;78.73
62703;BME280;66022;50.448;18.122;2023-03-21T15:52:42;99138.44;;;12.28;78.48
62703;BME280;66022;50.448;18.122;2023-03-21T15:56:46;99138.21;;;12.25;80.87
62703;BME280;66022;50.448;18.122;2023-03-21T16:00:51;99137.62;;;12.22;79.54
62703;BME280;66022;50.448;18.122;2023-03-21T16:13:03;99140.12;;;12.09;79.83
62703;BME280;66022;50.448;18.122;2023-03-21T16:21:11;99142.08;;;11.97;81.16
62703;BME280;66022;50.448;18.122;2023-03-21T16:25:14;99142.53;;;11.91;80.16
62703;BME280;66022;50.448;18.122;2023-03-21T16:29:18;99143.13;;;11.83;82.28
62703;BME280;66022;50.448;18.122;2023-03-21T16:33:22;99144.41;;;11.77;80.68
62703;BME280;66022;50.448;18.122;2023-03-21T16:37:26;99145.64;;;11.70;82.96
62703;BME280;66022;50.448;18.122;2023-03-21T16:41:30;99146.58;;;11.63;82.28
62703;BME280;66022;50.448;18.122;2023-03-21T16:45:34;99146.70;;;11.55;82.59
62703;BME280;66022;50.448;18.122;2023-03-21T16:49:41;99148.13;;;11.47;83.69
62703;BME280;66022;50.448;18.122;2023-03-21T16:53:43;99149.49;;;11.40;83.37
62703;BME280;66022;50.448;18.122;2023-03-21T16:57:46;99151.29;;;11.32;84.99
62703;BME280;66022;50.448;18.122;2023-03-21T17:01:50;99154.24;;;11.26;84.29
62703;BME280;66022;50.448;18.122;2023-03-21T17:05:54;99157.08;;;11.20;84.45
62703;BME280;66022;50.448;18.122;2023-03-21T17:10:01;99160.30;;;11.13;84.38
62703;BME280;66022;50.448;18.122;2023-03-21T17:14:02;99161.88;;;11.07;85.06
62703;BME280;66022;50.448;18.122;2023-03-21T17:18:06;99163.08;;;11.00;85.51
62703;BME280;66022;50.448;18.122;2023-03-21T17:22:10;99164.32;;;10.97;84.36
62703;BME280;66022;50.448;18.122;2023-03-21T17:26:21;99166.67;;;10.91;89.65
62703;BME280;66022;50.448;18.122;2023-03-21T17:30:25;99168.06;;;10.88;85.38
62703;BME280;66022;50.448;18.122;2023-03-21T17:34:26;99169.45;;;10.86;84.66
62703;BME280;66022;50.448;18.122;2023-03-21T17:38:26;99169.42;;;10.82;85.65
62703;BME280;66022;50.448;18.122;2023-03-21T17:42:30;99170.64;;;10.82;84.73
62703;BME280;66022;50.448;18.122;2023-03-21T17:46:35;99171.02;;;10.77;89.90
62703;BME280;66022;50.448;18.122;2023-03-21T17:50:38;99171.73;;;10.75;85.10
62703;BME280;66022;50.448;18.122;2023-03-21T17:54:42;99173.24;;;10.73;85.42
62703;BME280;66022;50.448;18.122;2023-03-21T17:58:46;99174.94;;;10.68;86.39
62703;BME280;66022;50.448;18.122;2023-03-21T18:02:50;99176.86;;;10.66;85.42
62703;BME280;66022;50.448;18.122;2023-03-21T18:06:54;99178.36;;;10.63;88.61
62703;BME280;66022;50.448;18.122;2023-03-21T18:10:58;99179.57;;;10.61;86.38
62703;BME280;66022;50.448;18.122;2023-03-21T18:15:02;99181.13;;;10.59;86.09
62703;BME280;66022;50.448;18.122;2023-03-21T18:19:06;99181.70;;;10.56;87.00
62703;BME280;66022;50.448;18.122;2023-03-21T18:23:10;99181.79;;;10.52;86.46
62703;BME280;66022;50.448;18.122;2023-03-21T18:27:14;99180.30;;;10.43;89.34
62703;BME280;66022;50.448;18.122;2023-03-21T18:31:18;99178.07;;;10.35;87.78
62703;BME280;66022;50.448;18.122;2023-03-21T18:35:22;99176.37;;;10.27;86.98
62703;BME280;66022;50.448;18.122;2023-03-21T18:39:27;99175.71;;;10.22;88.17
62703;BME280;66022;50.448;18.122;2023-03-21T18:43:33;99175.02;;;10.20;88.17
62703;BME280;66022;50.448;18.122;2023-03-21T18:47:35;99176.15;;;10.17;90.52
62703;BME280;66022;50.448;18.122;2023-03-21T18:51:38;99175.95;;;10.16;88.30
62703;BME280;66022;50.448;18.122;2023-03-21T18:55:44;99175.33;;;10.13;88.13
62703;BME280;66022;50.448;18.122;2023-03-21T18:59:46;99174.87;;;10.08;88.31
62703;BME280;66022;50.448;18.122;2023-03-21T19:03:50;99172.34;;;10.03;87.26
62703;BME280;66022;50.448;18.122;2023-03-21T19:07:54;99167.69;;;9.98;89.49
62703;BME280;66022;50.448;18.122;2023-03-21T19:11:59;99165.05;;;9.92;88.35
62703;BME280;66022;50.448;18.122;2023-03-21T19:16:03;99163.00;;;9.85;90.52
62703;BME280;66022;50.448;18.122;2023-03-21T19:20:07;99163.22;;;9.82;87.74
62703;BME280;66022;50.448;18.122;2023-03-21T19:24:10;99163.12;;;9.83;86.48
62703;BME280;66022;50.448;18.122;2023-03-21T19:28:19;99164.15;;;9.82;88.31
62703;BME280;66022;50.448;18.122;2023-03-21T19:32:18;99164.78;;;9.84;86.92
62703;BME280;66022;50.448;18.122;2023-03-21T19:36:22;99164.36;;;9.84;91.01
62703;BME280;66022;50.448;18.122;2023-03-21T19:40:26;99165.37;;;9.88;87.24
62703;BME280;66022;50.448;18.122;2023-03-21T19:44:31;99167.83;;;9.90;87.06
62703;BME280;66022;50.448;18.122;2023-03-21T19:48:34;99169.23;;;9.88;89.13
62703;BME280;66022;50.448;18.122;2023-03-21T19:52:39;99167.13;;;9.89;87.39
62703;BME280;66022;50.448;18.122;2023-03-21T19:56:43;99165.34;;;9.89;91.23
62703;BME280;66022;50.448;18.122;2023-03-21T20:00:46;99165.84;;;9.93;86.35
62703;BME280;66022;50.448;18.122;2023-03-21T20:04:50;99167.75;;;9.94;87.18
62703;BME280;66022;50.448;18.122;2023-03-21T20:08:54;99170.92;;;9.92;89.14
62703;BME280;66022;50.448;18.122;2023-03-21T20:12:59;99172.66;;;9.89;88.10
62703;BME280;66022;50.448;18.122;2023-03-21T20:17:04;99172.41;;;9.85;90.92
62703;BME280;66022;50.448;18.122;2023-03-21T20:21:07;99171.77;;;9.83;88.16
62703;BME280;66022;50.448;18.122;2023-03-21T20:25:11;99170.78;;;9.82;88.46
62703;BME280;66022;50.448;18.122;2023-03-21T20:29:17;99169.72;;;9.81;88.43
62703;BME280;66022;50.448;18.122;2023-03-21T20:33:19;99168.19;;;9.81;88.10
62703;BME280;66022;50.448;18.122;2023-03-21T20:37:23;99165.56;;;9.79;92.16
62703;BME280;66022;50.448;18.122;2023-03-21T20:41:26;99161.69;;;9.83;88.30
62703;BME280;66022;50.448;18.122;2023-03-21T20:45:31;99159.74;;;9.88;87.81
62703;BME280;66022;50.448;18.122;2023-03-21T20:49:35;99157.93;;;9.91;88.12
62703;BME280;66022;50.448;18.122;2023-03-21T20:53:39;99154.10;;;9.93;87.60
62703;BME280;66022;50.448;18.122;2023-03-21T20:57:43;99152.19;;;9.92;89.16
62703;BME280;66022;50.448;18.122;2023-03-21T21:01:47;99151.29;;;9.91;89.13
62703;BME280;66022;50.448;18.122;2023-03-21T21:05:51;99150.90;;;9.89;88.38
62703;BME280;66022;50.448;18.122;2023-03-21T21:09:55;99150.23;;;9.85;89.02
62703;BME280;66022;50.448;18.122;2023-03-21T21:13:58;99150.06;;;9.81;88.69
62703;BME280;66022;50.448;18.122;2023-03-21T21:18:03;99151.68;;;9.76;90.11
62703;BME280;66022;50.448;18.122;2023-03-21T21:22:07;99150.34;;;9.73;88.57
62703;BME280;66022;50.448;18.122;2023-03-21T21:26:11;99148.47;;;9.69;92.71
62703;BME280;66022;50.448;18.122;2023-03-21T21:30:15;99146.02;;;9.70;88.95
62703;BME280;66022;50.448;18.122;2023-03-21T21:34:19;99145.22;;;9.69;88.64
62703;BME280;66022;50.448;18.122;2023-03-21T21:38:23;99145.01;;;9.66;89.61
62703;BME280;66022;50.448;18.122;2023-03-21T21:42:27;99143.92;;;9.67;88.50
62703;BME280;66022;50.448;18.122;2023-03-21T21:46:31;99142.16;;;9.62;94.65
62703;BME280;66022;50.448;18.122;2023-03-21T21:50:35;99141.36;;;9.60;89.09
62703;BME280;66022;50.448;18.122;2023-03-21T21:54:39;99141.25;;;9.57;89.00
62703;BME280;66022;50.448;18.122;2023-03-21T21:58:43;99141.64;;;9.54;89.71
62703;BME280;66022;50.448;18.122;2023-03-21T22:02:48;99143.30;;;9.55;88.37
62703;BME280;66022;50.448;18.122;2023-03-21T22:06:51;99144.55;;;9.55;92.80
62703;BME280;66022;50.448;18.122;2023-03-21T22:11:03;99144.86;;;9.58;88.78
62703;BME280;66022;50.448;18.122;2023-03-21T22:15:02;99146.33;;;9.59;88.67
62703;BME280;66022;50.448;18.122;2023-03-21T22:19:06;99148.19;;;9.59;88.94
62703;BME280;66022;50.448;18.122;2023-03-21T22:23:07;99147.08;;;9.63;88.06
62703;BME280;66022;50.448;18.122;2023-03-21T22:27:11;99144.55;;;9.65;90.58
62703;BME280;66022;50.448;18.122;2023-03-21T22:31:15;99141.93;;;9.68;87.92
62703;BME280;66022;50.448;18.122;2023-03-21T22:35:19;99137.55;;;9.70;87.92
62703;BME280;66022;50.448;18.122;2023-03-21T22:39:23;99134.13;;;9.69;88.91
62703;BME280;66022;50.448;18.122;2023-03-21T22:43:27;99131.14;;;9.68;88.84
62703;BME280;66022;50.448;18.122;2023-03-21T22:47:31;99129.72;;;9.62;91.28
62703;BME280;66022;50.448;18.122;2023-03-21T22:51:35;99128.83;;;9.58;89.61
62703;BME280;66022;50.448;18.122;2023-03-21T22:55:39;99129.57;;;9.53;89.11
62703;BME280;66022;50.448;18.122;2023-03-21T22:59:43;99129.30;;;9.50;89.63
62703;BME280;66022;50.448;18.122;2023-03-21T23:03:47;99128.23;;;9.46;89.42
62703;BME280;66022;50.448;18.122;2023-03-21T23:07:51;99128.56;;;9.41;91.27